sensor_id;sensor_type;location;lat;lon;timestamp;pressure;altitude;pressure_sealevel;temperature;humidity
67818;BME280;54614;47.576;7.524;2024-02-28T00:02:11;98404.13;;;21.24;37.88
67818;BME280;54614;47.576;7.524;2024-02-28T00:04:40;98402.91;;;21.27;37.89
67818;BME280;54614;47.576;7.524;2024-02-28T00:07:06;98402.81;;;21.20;38.20
67818;BME280;54614;47.576;7.524;2024-02-28T00:09:32;98404.13;;;21.24;37.92
67818;BME280;54614;47.576;7.524;2024-02-28T00:11:58;98406.59;;;21.26;38.04
67818;BME280;54614;47.576;7.524;2024-02-28T00:14:24;98404.75;;;21.26;37.81
67818;BME280;54614;47.576;7.524;2024-02-28T00:16:49;98413.31;;;21.21;38.12
67818;BME280;54614;47.576;7.524;2024-02-28T00:19:16;98403.22;;;21.17;38.09
67818;BME280;54614;47.576;7.524;2024-02-28T00:21:44;98400.09;;;21.13;38.16
67818;BME280;54614;47.576;7.524;2024-02-28T00:24:10;98408.13;;;21.13;38.14
67818;BME280;54614;47.576;7.524;2024-02-28T00:26:36;98413.81;;;21.25;37.79
67818;BME280;54614;47.576;7.524;2024-02-28T00:29:02;98405.88;;;21.17;38.09
67818;BME280;54614;47.576;7.524;2024-02-28T00:31:28;98404.81;;;21.11;38.12
67818;BME280;54614;47.576;7.524;2024-02-28T00:33:54;98409.78;;;21.14;38.16
67818;BME280;54614;47.576;7.524;2024-02-28T00:36:20;98407.97;;;21.21;38.05
67818;BME280;54614;47.576;7.524;2024-02-28T00:38:45;98411.69;;;21.20;37.94
67818;BME280;54614;47.576;7.524;2024-02-28T00:41:11;98403.84;;;21.19;38.19
67818;BME280;54614;47.576;7.524;2024-02-28T00:43:37;98405.69;;;21.18;37.98
67818;BME280;54614;47.576;7.524;2024-02-28T00:46:03;98414.94;;;21.16;38.14
67818;BME280;54614;47.576;7.524;2024-02-28T00:48:29;98420.84;;;21.11;38.09
67818;BME280;54614;47.576;7.524;2024-02-28T00:50:55;98418.13;;;21.05;38.24
67818;BME280;54614;47.576;7.524;2024-02-28T00:53:20;98417.53;;;21.09;38.15
67818;BME280;54614;47.576;7.524;2024-02-28T00:55:46;98420.09;;;21.17;38.15
67818;BME280;54614;47.576;7.524;2024-02-28T00:58:12;98422.13;;;21.15;38.05
67818;BME280;54614;47.576;7.524;2024-02-28T01:00:38;98426.84;;;21.13;38.26
67818;BME280;54614;47.576;7.524;2024-02-28T01:03:04;98427.47;;;21.15;37.97
67818;BME280;54614;47.576;7.524;2024-02-28T01:05:31;98425.63;;;21.16;38.00
67818;BME280;54614;47.576;7.524;2024-02-28T01:07:56;98424.34;;;21.12;38.07
67818;BME280;54614;47.576;7.524;2024-02-28T01:10:22;98436.56;;;21.21;38.22
67818;BME280;54614;47.576;7.524;2024-02-28T01:12:49;98432.44;;;21.18;38.04
67818;BME280;54614;47.576;7.524;2024-02-28T01:15:14;98433.84;;;21.14;38.05
67818;BME280;54614;47.576;7.524;2024-02-28T01:17:40;98438.75;;;21.11;37.89
67818;BME280;54614;47.576;7.524;2024-02-28T01:20:07;98434.81;;;21.07;37.87
67818;BME280;54614;47.576;7.524;2024-02-28T01:22:34;98438.38;;;21.14;37.80
67818;BME280;54614;47.576;7.524;2024-02-28T01:25:04;98434.22;;;21.11;37.66
67818;BME280;54614;47.576;7.524;2024-02-28T01:27:30;98434.47;;;21.16;37.76
67818;BME280;54614;47.576;7.524;2024-02-28T01:29:56;98433.84;;;21.14;37.62
67818;BME280;54614;47.576;7.524;2024-02-28T01:32:22;98435.19;;;21.25;37.51
67818;BME280;54614;47.576;7.524;2024-02-28T01:34:47;98436.91;;;21.33;37.46
67818;BME280;54614;47.576;7.524;2024-02-28T01:37:13;98448.03;;;21.15;37.83
67818;BME280;54614;47.576;7.524;2024-02-28T01:39:40;98449.13;;;21.42;37.04
67818;BME280;54614;47.576;7.524;2024-02-28T01:42:06;98446.75;;;21.53;36.84
67818;BME280;54614;47.576;7.524;2024-02-28T01:44:47;98452.38;;;21.37;36.90
67818;BME280;54614;47.576;7.524;2024-02-28T01:47:14;98448.34;;;21.48;36.93
67818;BME280;54614;47.576;7.524;2024-02-28T01:49:42;98445.22;;;21.44;37.03
67818;BME280;54614;47.576;7.524;2024-02-28T01:52:10;98453.53;;;21.56;36.75
67818;BME280;54614;47.576;7.524;2024-02-28T01:54:36;98449.75;;;21.72;36.32
67818;BME280;54614;47.576;7.524;2024-02-28T01:57:03;98452.81;;;21.69;36.56
67818;BME280;54614;47.576;7.524;2024-02-28T01:59:31;98457.50;;;21.60;36.56
67818;BME280;54614;47.576;7.524;2024-02-28T02:01:57;98462.09;;;21.45;37.10
67818;BME280;54614;47.576;7.524;2024-02-28T02:04:23;98468.13;;;21.26;37.46
67818;BME280;54614;47.576;7.524;2024-02-28T02:06:49;98475.63;;;21.15;37.58
67818;BME280;54614;47.576;7.524;2024-02-28T02:09:16;98465.69;;;21.09;37.82
67818;BME280;54614;47.576;7.524;2024-02-28T02:11:42;98470.47;;;21.14;37.58
67818;BME280;54614;47.576;7.524;2024-02-28T02:14:08;98477.41;;;21.08;37.62
67818;BME280;54614;47.576;7.524;2024-02-28T02:16:34;98478.03;;;21.10;37.93
67818;BME280;54614;47.576;7.524;2024-02-28T02:18:59;98484.22;;;21.11;37.98
67818;BME280;54614;47.576;7.524;2024-02-28T02:21:30;98480.06;;;21.08;37.80
67818;BME280;54614;47.576;7.524;2024-02-28T02:23:58;98482.56;;;21.10;38.06
67818;BME280;54614;47.576;7.524;2024-02-28T02:26:24;98480.47;;;21.05;38.09
67818;BME280;54614;47.576;7.524;2024-02-28T02:28:50;98483.31;;;21.04;37.89
67818;BME280;54614;47.576;7.524;2024-02-28T02:31:15;98486.44;;;21.07;38.11
67818;BME280;54614;47.576;7.524;2024-02-28T02:33:41;98483.78;;;21.07;37.91
67818;BME280;54614;47.576;7.524;2024-02-28T02:36:07;98481.84;;;21.01;38.06
67818;BME280;54614;47.576;7.524;2024-02-28T02:38:33;98485.44;;;21.08;37.70
67818;BME280;54614;47.576;7.524;2024-02-28T02:40:58;98486.81;;;21.04;37.83
67818;BME280;54614;47.576;7.524;2024-02-28T02:43:24;98486.44;;;21.07;37.93
67818;BME280;54614;47.576;7.524;2024-02-28T02:45:50;98485.16;;;21.03;37.85
67818;BME280;54614;47.576;7.524;2024-02-28T02:48:16;98487.03;;;21.03;38.01
67818;BME280;54614;47.576;7.524;2024-02-28T02:50:42;98485.22;;;21.10;37.79
67818;BME280;54614;47.576;7.524;2024-02-28T02:53:10;98489.56;;;21.11;38.01
67818;BME280;54614;47.576;7.524;2024-02-28T02:55:36;98487.06;;;21.09;38.03
67818;BME280;54614;47.576;7.524;2024-02-28T02:58:02;98490.66;;;21.16;37.95
67818;BME280;54614;47.576;7.524;2024-02-28T03:00:28;98492.63;;;21.08;38.09
67818;BME280;54614;47.576;7.524;2024-02-28T03:02:54;98496.69;;;21.04;38.21
67818;BME280;54614;47.576;7.524;2024-02-28T03:05:20;98505.47;;;20.98;38.22
67818;BME280;54614;47.576;7.524;2024-02-28T03:07:46;98504.47;;;20.99;37.93
67818;BME280;54614;47.576;7.524;2024-02-28T03:10:12;98506.19;;;21.06;38.02
67818;BME280;54614;47.576;7.524;2024-02-28T03:12:38;98503.06;;;21.03;38.05
67818;BME280;54614;47.576;7.524;2024-02-28T03:15:05;98514.66;;;21.10;37.92
67818;BME280;54614;47.576;7.524;2024-02-28T03:17:31;98512.38;;;21.07;37.93
67818;BME280;54614;47.576;7.524;2024-02-28T03:19:56;98522.22;;;21.06;38.11
67818;BME280;54614;47.576;7.524;2024-02-28T03:22:22;98530.06;;;21.08;37.89
67818;BME280;54614;47.576;7.524;2024-02-28T03:24:48;98535.97;;;21.03;38.22
67818;BME280;54614;47.576;7.524;2024-02-28T03:27:14;98529.81;;;21.03;38.04
67818;BME280;54614;47.576;7.524;2024-02-28T03:29:40;98527.13;;;21.03;37.97
67818;BME280;54614;47.576;7.524;2024-02-28T03:32:06;98532.41;;;20.96;37.89
67818;BME280;54614;47.576;7.524;2024-02-28T03:34:32;98543.47;;;20.93;38.10
67818;BME280;54614;47.576;7.524;2024-02-28T03:36:58;98548.25;;;20.98;37.85
67818;BME280;54614;47.576;7.524;2024-02-28T03:39:23;98550.38;;;21.02;38.19
67818;BME280;54614;47.576;7.524;2024-02-28T03:41:49;98543.44;;;21.08;37.86
67818;BME280;54614;47.576;7.524;2024-02-28T03:44:15;98555.34;;;21.05;38.14
67818;BME280;54614;47.576;7.524;2024-02-28T03:46:41;98557.38;;;21.03;38.15
67818;BME280;54614;47.576;7.524;2024-02-28T03:49:07;98562.91;;;21.02;37.90
67818;BME280;54614;47.576;7.524;2024-02-28T03:51:39;98566.88;;;21.06;37.85
67818;BME280;54614;47.576;7.524;2024-02-28T03:54:05;98566.88;;;21.06;37.93
67818;BME280;54614;47.576;7.524;2024-02-28T03:56:30;98562.72;;;21.03;37.92
67818;BME280;54614;47.576;7.524;2024-02-28T03:58:56;98568.63;;;20.99;38.06
67818;BME280;54614;47.576;7.524;2024-02-28T04:01:22;98568.38;;;20.94;37.86
67818;BME280;54614;47.576;7.524;2024-02-28T04:03:48;98568.63;;;20.99;37.97
67818;BME280;54614;47.576;7.524;2024-02-28T04:08:41;98580.16;;;20.99;38.04
67818;BME280;54614;47.576;7.524;2024-02-28T04:11:07;98580.81;;;21.01;38.25
67818;BME280;54614;47.576;7.524;2024-02-28T04:13:33;98581.25;;;21.05;38.03
67818;BME280;54614;47.576;7.524;2024-02-28T04:15:59;98577.38;;;21.07;37.86
67818;BME280;54614;47.576;7.524;2024-02-28T04:18:25;98590.75;;;21.07;37.89
67818;BME280;54614;47.576;7.524;2024-02-28T04:20:50;98584.31;;;21.02;38.04
67818;BME280;54614;47.576;7.524;2024-02-28T04:23:16;98586.97;;;21.02;38.01
67818;BME280;54614;47.576;7.524;2024-02-28T04:25:42;98584.03;;;20.97;37.85
67818;BME280;54614;47.576;7.524;2024-02-28T04:28:08;98596.31;;;20.91;38.09
67818;BME280;54614;47.576;7.524;2024-02-28T04:30:34;98614.84;;;20.92;38.05
67818;BME280;54614;47.576;7.524;2024-02-28T04:33:00;98609.56;;;20.99;37.90
67818;BME280;54614;47.576;7.524;2024-02-28T04:35:26;98613.16;;;21.06;37.84
67818;BME280;54614;47.576;7.524;2024-02-28T04:37:52;98617.22;;;21.02;38.04
67818;BME280;54614;47.576;7.524;2024-02-28T04:40:17;98610.03;;;21.03;37.97
67818;BME280;54614;47.576;7.524;2024-02-28T04:42:43;98615.28;;;20.96;38.02
67818;BME280;54614;47.576;7.524;2024-02-28T04:45:10;98607.53;;;21.01;37.96
67818;BME280;54614;47.576;7.524;2024-02-28T04:47:37;98611.88;;;21.02;37.89
67818;BME280;54614;47.576;7.524;2024-02-28T04:50:04;98608.19;;;21.03;37.85
67818;BME280;54614;47.576;7.524;2024-02-28T04:52:34;98609.75;;;20.98;38.00
67818;BME280;54614;47.576;7.524;2024-02-28T04:55:01;98617.69;;;20.91;38.05
67818;BME280;54614;47.576;7.524;2024-02-28T04:57:27;98625.72;;;20.91;38.16
67818;BME280;54614;47.576;7.524;2024-02-28T04:59:53;98622.94;;;20.99;38.12
67818;BME280;54614;47.576;7.524;2024-02-28T05:02:19;98626.25;;;21.01;38.15
67818;BME280;54614;47.576;7.524;2024-02-28T05:04:47;98629.31;;;20.98;38.02
67818;BME280;54614;47.576;7.524;2024-02-28T05:07:13;98627.91;;;21.02;38.01
67818;BME280;54614;47.576;7.524;2024-02-28T05:09:39;98630.13;;;20.99;37.94
67818;BME280;54614;47.576;7.524;2024-02-28T05:12:05;98630.13;;;20.99;37.97
67818;BME280;54614;47.576;7.524;2024-02-28T05:14:31;98633.00;;;20.97;38.04
67818;BME280;54614;47.576;7.524;2024-02-28T05:16:56;98642.50;;;21.00;37.92
67818;BME280;54614;47.576;7.524;2024-02-28T05:19:22;98642.03;;;20.96;37.92
67818;BME280;54614;47.576;7.524;2024-02-28T05:21:48;98646.94;;;20.92;38.04
67818;BME280;54614;47.576;7.524;2024-02-28T05:24:14;98641.78;;;20.91;37.92
67818;BME280;54614;47.576;7.524;2024-02-28T05:26:40;98647.00;;;20.99;37.99
67818;BME280;54614;47.576;7.524;2024-02-28T05:29:06;98652.34;;;20.99;38.13
67818;BME280;54614;47.576;7.524;2024-02-28T05:31:32;98652.44;;;21.06;38.01
67818;BME280;54614;47.576;7.524;2024-02-28T05:33:59;98659.44;;;21.07;37.73
67818;BME280;54614;47.576;7.524;2024-02-28T05:36:28;98661.03;;;21.01;38.07
67818;BME280;54614;47.576;7.524;2024-02-28T05:38:59;98662.69;;;21.02;38.09
67818;BME280;54614;47.576;7.524;2024-02-28T05:41:25;98664.91;;;20.99;37.90
67818;BME280;54614;47.576;7.524;2024-02-28T05:43:51;98668.03;;;21.02;37.97
67818;BME280;54614;47.576;7.524;2024-02-28T05:46:19;98667.94;;;20.96;38.09
67818;BME280;54614;47.576;7.524;2024-02-28T05:48:45;98675.78;;;20.97;37.67
67818;BME280;54614;47.576;7.524;2024-02-28T05:51:12;98675.88;;;20.89;37.97
67818;BME280;54614;47.576;7.524;2024-02-28T05:53:41;98682.78;;;20.98;37.92
67818;BME280;54614;47.576;7.524;2024-02-28T05:56:09;98684.06;;;21.02;37.97
67818;BME280;54614;47.576;7.524;2024-02-28T05:58:46;98684.06;;;21.02;38.02
67818;BME280;54614;47.576;7.524;2024-02-28T06:01:16;98691.38;;;20.94;38.15
67818;BME280;54614;47.576;7.524;2024-02-28T06:03:48;98690.44;;;21.01;38.02
67818;BME280;54614;47.576;7.524;2024-02-28T06:06:14;98700.50;;;20.99;37.99
67818;BME280;54614;47.576;7.524;2024-02-28T06:08:40;98702.72;;;20.96;38.15
67818;BME280;54614;47.576;7.524;2024-02-28T06:11:07;98709.34;;;21.00;37.90
67818;BME280;54614;47.576;7.524;2024-02-28T06:13:33;98711.94;;;20.93;38.00
67818;BME280;54614;47.576;7.524;2024-02-28T06:15:59;98714.59;;;20.93;38.07
67818;BME280;54614;47.576;7.524;2024-02-28T06:18:26;98720.13;;;20.91;37.97
67818;BME280;54614;47.576;7.524;2024-02-28T06:20:56;98725.56;;;20.98;38.03
67818;BME280;54614;47.576;7.524;2024-02-28T06:23:22;98735.44;;;20.98;37.99
67818;BME280;54614;47.576;7.524;2024-02-28T06:25:49;98743.09;;;21.01;38.05
67818;BME280;54614;47.576;7.524;2024-02-28T06:28:15;98745.31;;;20.97;38.02
67818;BME280;54614;47.576;7.524;2024-02-28T06:30:42;98747.34;;;20.95;38.21
67818;BME280;54614;47.576;7.524;2024-02-28T06:33:09;98746.78;;;21.00;37.79
67818;BME280;54614;47.576;7.524;2024-02-28T06:35:35;98750.28;;;21.00;37.97
67818;BME280;54614;47.576;7.524;2024-02-28T06:38:01;98757.28;;;21.01;38.02
67818;BME280;54614;47.576;7.524;2024-02-28T06:40:27;98752.03;;;20.93;37.92
67818;BME280;54614;47.576;7.524;2024-02-28T06:42:54;98748.81;;;20.83;38.04
67818;BME280;54614;47.576;7.524;2024-02-28T06:45:20;98753.59;;;20.87;37.94
67818;BME280;54614;47.576;7.524;2024-02-28T06:47:46;98759.59;;;20.89;38.06
67818;BME280;54614;47.576;7.524;2024-02-28T06:50:12;98767.44;;;20.91;38.15
67818;BME280;54614;47.576;7.524;2024-02-28T06:52:38;98776.56;;;20.97;37.94
67818;BME280;54614;47.576;7.524;2024-02-28T06:55:04;98777.41;;;20.97;38.07
67818;BME280;54614;47.576;7.524;2024-02-28T06:57:37;98789.00;;;20.89;38.25
67818;BME280;54614;47.576;7.524;2024-02-28T07:00:09;98784.50;;;20.90;38.24
67818;BME280;54614;47.576;7.524;2024-02-28T07:02:36;98792.16;;;20.93;38.23
67818;BME280;54614;47.576;7.524;2024-02-28T07:05:02;98788.47;;;20.94;38.19
67818;BME280;54614;47.576;7.524;2024-02-28T07:07:33;98785.31;;;20.90;37.93
67818;BME280;54614;47.576;7.524;2024-02-28T07:09:59;98790.66;;;20.90;37.71
67818;BME280;54614;47.576;7.524;2024-02-28T07:12:25;98788.53;;;20.86;37.85
67818;BME280;54614;47.576;7.524;2024-02-28T07:14:51;98791.88;;;20.88;37.91
67818;BME280;54614;47.576;7.524;2024-02-28T07:17:17;98794.44;;;20.96;37.86
67818;BME280;54614;47.576;7.524;2024-02-28T07:19:43;98797.69;;;20.91;37.89
67818;BME280;54614;47.576;7.524;2024-02-28T07:22:09;98805.03;;;20.89;38.19
67818;BME280;54614;47.576;7.524;2024-02-28T07:24:35;98809.19;;;20.92;37.72
67818;BME280;54614;47.576;7.524;2024-02-28T07:27:02;98808.91;;;20.87;38.12
67818;BME280;54614;47.576;7.524;2024-02-28T07:29:28;98810.69;;;20.95;38.23
67818;BME280;54614;47.576;7.524;2024-02-28T07:31:54;98810.56;;;20.88;38.09
67818;BME280;54614;47.576;7.524;2024-02-28T07:36:45;98818.31;;;20.83;37.93
67818;BME280;54614;47.576;7.524;2024-02-28T07:41:39;98827.63;;;20.87;37.95
67818;BME280;54614;47.576;7.524;2024-02-28T07:44:05;98823.75;;;20.89;38.07
67818;BME280;54614;47.576;7.524;2024-02-28T07:46:32;98828.47;;;20.87;38.12
67818;BME280;54614;47.576;7.524;2024-02-28T07:48:58;98825.78;;;20.87;38.01
67818;BME280;54614;47.576;7.524;2024-02-28T07:51:24;98826.44;;;20.89;37.95
67818;BME280;54614;47.576;7.524;2024-02-28T07:53:50;98825.31;;;20.84;38.02
67818;BME280;54614;47.576;7.524;2024-02-28T07:56:17;98834.09;;;20.92;37.96
67818;BME280;54614;47.576;7.524;2024-02-28T07:58:44;98836.31;;;20.89;38.26
67818;BME280;54614;47.576;7.524;2024-02-28T08:01:10;98826.81;;;20.86;38.03
67818;BME280;54614;47.576;7.524;2024-02-28T08:03:36;98823.75;;;20.89;37.73
67818;BME280;54614;47.576;7.524;2024-02-28T08:06:03;98834.66;;;20.88;37.99
67818;BME280;54614;47.576;7.524;2024-02-28T08:10:55;98844.88;;;20.84;38.14
67818;BME280;54614;47.576;7.524;2024-02-28T08:13:21;98847.38;;;20.86;38.01
67818;BME280;54614;47.576;7.524;2024-02-28T08:15:46;98856.22;;;20.86;37.87
67818;BME280;54614;47.576;7.524;2024-02-28T08:18:12;98852.16;;;20.90;37.96
67818;BME280;54614;47.576;7.524;2024-02-28T08:20:38;98855.84;;;20.89;37.91
67818;BME280;54614;47.576;7.524;2024-02-28T08:23:05;98853.53;;;20.86;38.16
67818;BME280;54614;47.576;7.524;2024-02-28T08:25:32;98860.91;;;20.84;38.23
67818;BME280;54614;47.576;7.524;2024-02-28T08:27:58;98857.59;;;20.82;37.95
67818;BME280;54614;47.576;7.524;2024-02-28T08:30:23;98858.72;;;20.88;37.70
67818;BME280;54614;47.576;7.524;2024-02-28T08:32:49;98876.41;;;20.89;37.55
67818;BME280;54614;47.576;7.524;2024-02-28T08:35:17;98868.03;;;20.92;37.83
67818;BME280;54614;47.576;7.524;2024-02-28T08:37:44;98870.59;;;20.85;38.04
67818;BME280;54614;47.576;7.524;2024-02-28T08:42:37;98874.56;;;20.89;37.93
67818;BME280;54614;47.576;7.524;2024-02-28T08:45:03;98877.13;;;20.83;38.20
67818;BME280;54614;47.576;7.524;2024-02-28T08:47:29;98884.00;;;20.77;38.16
67818;BME280;54614;47.576;7.524;2024-02-28T08:49:55;98880.28;;;20.86;37.97
67818;BME280;54614;47.576;7.524;2024-02-28T08:52:21;98887.19;;;20.81;38.14
67818;BME280;54614;47.576;7.524;2024-02-28T08:54:48;98891.34;;;20.83;38.00
67818;BME280;54614;47.576;7.524;2024-02-28T08:57:14;98896.84;;;20.82;38.00
67818;BME280;54614;47.576;7.524;2024-02-28T08:59:40;98896.34;;;20.78;37.96
67818;BME280;54614;47.576;7.524;2024-02-28T09:02:07;98889.59;;;20.90;37.95
67818;BME280;54614;47.576;7.524;2024-02-28T09:04:34;98894.00;;;20.83;38.01
67818;BME280;54614;47.576;7.524;2024-02-28T09:06:59;98898.16;;;20.86;38.09
67818;BME280;54614;47.576;7.524;2024-02-28T09:09:26;98901.47;;;20.88;37.90
67818;BME280;54614;47.576;7.524;2024-02-28T09:11:52;98898.53;;;20.83;38.12
67818;BME280;54614;47.576;7.524;2024-02-28T09:14:17;98903.50;;;20.86;38.04
67818;BME280;54614;47.576;7.524;2024-02-28T09:16:43;98906.00;;;20.87;38.08
67818;BME280;54614;47.576;7.524;2024-02-28T09:19:09;98899.34;;;20.83;38.21
67818;BME280;54614;47.576;7.524;2024-02-28T09:21:34;98905.34;;;20.85;37.92
67818;BME280;54614;47.576;7.524;2024-02-28T09:24:01;98905.88;;;20.81;37.97
67818;BME280;54614;47.576;7.524;2024-02-28T09:26:27;98905.88;;;20.81;37.85
67818;BME280;54614;47.576;7.524;2024-02-28T09:28:52;98910.72;;;20.77;38.05
67818;BME280;54614;47.576;7.524;2024-02-28T09:31:18;98917.56;;;20.80;38.04
67818;BME280;54614;47.576;7.524;2024-02-28T09:33:44;98908.56;;;20.81;38.08
67818;BME280;54614;47.576;7.524;2024-02-28T09:36:13;98910.88;;;20.84;38.09
67818;BME280;54614;47.576;7.524;2024-02-28T09:38:38;98912.06;;;20.81;37.94
67818;BME280;54614;47.576;7.524;2024-02-28T09:41:04;98910.69;;;20.85;37.92
67818;BME280;54614;47.576;7.524;2024-02-28T09:43:32;98905.81;;;20.89;37.80
67818;BME280;54614;47.576;7.524;2024-02-28T09:46:04;98913.56;;;20.84;37.89
67818;BME280;54614;47.576;7.524;2024-02-28T09:48:31;98905.06;;;20.80;38.17
67818;BME280;54614;47.576;7.524;2024-02-28T09:50:57;98908.50;;;20.89;38.09
67818;BME280;54614;47.576;7.524;2024-02-28T09:53:24;98903.22;;;20.81;37.94
67818;BME280;54614;47.576;7.524;2024-02-28T09:55:50;98905.22;;;20.79;38.04
67818;BME280;54614;47.576;7.524;2024-02-28T09:58:18;98903.72;;;20.76;38.01
67818;BME280;54614;47.576;7.524;2024-02-28T10:00:46;98906.38;;;20.84;38.03
67818;BME280;54614;47.576;7.524;2024-02-28T10:03:19;98907.00;;;20.86;37.82
67818;BME280;54614;47.576;7.524;2024-02-28T10:05:47;98901.84;;;20.85;37.88
67818;BME280;54614;47.576;7.524;2024-02-28T10:08:13;98909.72;;;20.78;38.23
67818;BME280;54614;47.576;7.524;2024-02-28T10:10:46;98904.69;;;20.83;38.07
67818;BME280;54614;47.576;7.524;2024-02-28T10:13:13;98903.38;;;20.79;38.02
67818;BME280;54614;47.576;7.524;2024-02-28T10:15:39;98896.84;;;20.82;38.01
67818;BME280;54614;47.576;7.524;2024-02-28T10:18:05;98906.72;;;20.81;37.84
67818;BME280;54614;47.576;7.524;2024-02-28T10:20:31;98900.22;;;20.76;38.17
67818;BME280;54614;47.576;7.524;2024-02-28T10:22:57;98901.13;;;20.91;37.91
67818;BME280;54614;47.576;7.524;2024-02-28T10:25:23;98901.19;;;20.83;38.04
67818;BME280;54614;47.576;7.524;2024-02-28T10:27:49;98903.50;;;20.86;37.92
67818;BME280;54614;47.576;7.524;2024-02-28T10:32:51;98906.38;;;20.84;37.90
67818;BME280;54614;47.576;7.524;2024-02-28T10:35:18;98913.09;;;20.80;38.25
67818;BME280;54614;47.576;7.524;2024-02-28T10:37:52;98906.66;;;20.89;37.97
67818;BME280;54614;47.576;7.524;2024-02-28T10:40:20;98908.84;;;20.86;38.02
67818;BME280;54614;47.576;7.524;2024-02-28T10:42:48;98902.59;;;20.94;37.71
67818;BME280;54614;47.576;7.524;2024-02-28T10:47:43;98909.16;;;20.91;37.91
67818;BME280;54614;47.576;7.524;2024-02-28T10:50:09;98912.19;;;20.88;37.90
67818;BME280;54614;47.576;7.524;2024-02-28T10:52:43;98909.97;;;20.91;37.98
67818;BME280;54614;47.576;7.524;2024-02-28T10:55:09;98914.31;;;20.92;37.87
67818;BME280;54614;47.576;7.524;2024-02-28T10:57:38;98915.31;;;20.91;37.70
67818;BME280;54614;47.576;7.524;2024-02-28T11:00:06;98917.00;;;20.92;38.09
67818;BME280;54614;47.576;7.524;2024-02-28T11:02:32;98908.31;;;20.90;38.09
67818;BME280;54614;47.576;7.524;2024-02-28T11:04:59;98914.44;;;20.99;37.99
67818;BME280;54614;47.576;7.524;2024-02-28T11:07:27;98920.50;;;20.93;38.17
67818;BME280;54614;47.576;7.524;2024-02-28T11:09:56;98914.97;;;20.95;38.12
67818;BME280;54614;47.576;7.524;2024-02-28T11:12:29;98910.75;;;21.00;37.83
67818;BME280;54614;47.576;7.524;2024-02-28T11:15:03;98916.91;;;21.01;37.66
67818;BME280;54614;47.576;7.524;2024-02-28T11:17:35;98910.59;;;21.16;37.30
67818;BME280;54614;47.576;7.524;2024-02-28T11:20:12;98910.84;;;21.07;37.71
67818;BME280;54614;47.576;7.524;2024-02-28T11:22:39;98913.34;;;21.08;37.70
67818;BME280;54614;47.576;7.524;2024-02-28T11:25:06;98906.69;;;21.04;37.74
67818;BME280;54614;47.576;7.524;2024-02-28T11:27:32;98914.53;;;21.06;37.69
67818;BME280;54614;47.576;7.524;2024-02-28T11:29:57;98913.34;;;21.08;37.82
67818;BME280;54614;47.576;7.524;2024-02-28T11:32:26;98909.56;;;21.03;37.81
67818;BME280;54614;47.576;7.524;2024-02-28T11:34:52;98905.03;;;21.03;37.69
67818;BME280;54614;47.576;7.524;2024-02-28T11:37:18;98902.72;;;21.00;37.71
67818;BME280;54614;47.576;7.524;2024-02-28T11:39:47;98905.25;;;21.16;37.36
67818;BME280;54614;47.576;7.524;2024-02-28T11:42:15;98889.91;;;21.33;37.07
67818;BME280;54614;47.576;7.524;2024-02-28T11:44:42;98895.78;;;21.29;37.41
67818;BME280;54614;47.576;7.524;2024-02-28T11:47:11;98891.19;;;21.37;37.00
67818;BME280;54614;47.576;7.524;2024-02-28T11:49:38;98895.44;;;21.32;37.31
67818;BME280;54614;47.576;7.524;2024-02-28T11:52:07;98900.50;;;21.27;37.71
67818;BME280;54614;47.576;7.524;2024-02-28T11:54:33;98887.69;;;21.37;37.58
67818;BME280;54614;47.576;7.524;2024-02-28T11:56:58;98891.19;;;21.37;37.25
67818;BME280;54614;47.576;7.524;2024-02-28T11:59:24;98887.88;;;21.35;37.54
67818;BME280;54614;47.576;7.524;2024-02-28T12:01:50;98893.50;;;21.40;37.51
67818;BME280;54614;47.576;7.524;2024-02-28T12:04:18;98896.19;;;21.40;37.42
67818;BME280;54614;47.576;7.524;2024-02-28T12:06:43;98888.06;;;21.48;37.52
67818;BME280;54614;47.576;7.524;2024-02-28T12:09:12;98890.09;;;21.61;36.96
67818;BME280;54614;47.576;7.524;2024-02-28T12:11:41;98887.50;;;21.68;36.99
67818;BME280;54614;47.576;7.524;2024-02-28T12:14:08;98888.88;;;21.78;36.69
67818;BME280;54614;47.576;7.524;2024-02-28T12:16:38;98879.19;;;22.07;36.14
67818;BME280;54614;47.576;7.524;2024-02-28T12:19:11;98869.47;;;21.91;36.30
67818;BME280;54614;47.576;7.524;2024-02-28T12:21:38;98873.72;;;22.00;36.54
67818;BME280;54614;47.576;7.524;2024-02-28T12:24:09;98871.13;;;21.92;36.58
67818;BME280;54614;47.576;7.524;2024-02-28T12:26:38;98877.25;;;21.42;37.61
67818;BME280;54614;47.576;7.524;2024-02-28T12:29:04;98872.72;;;21.28;37.89
67818;BME280;54614;47.576;7.524;2024-02-28T12:31:30;98872.00;;;21.34;37.91
67818;BME280;54614;47.576;7.524;2024-02-28T12:33:56;98863.50;;;21.45;37.30
67818;BME280;54614;47.576;7.524;2024-02-28T12:36:22;98859.81;;;21.31;37.68
67818;BME280;54614;47.576;7.524;2024-02-28T12:38:48;98859.44;;;21.34;37.46
67818;BME280;54614;47.576;7.524;2024-02-28T12:41:14;98858.88;;;21.24;37.69
67818;BME280;54614;47.576;7.524;2024-02-28T12:43:41;98850.03;;;21.23;38.07
67818;BME280;54614;47.576;7.524;2024-02-28T12:46:07;98858.25;;;21.22;37.84
67818;BME280;54614;47.576;7.524;2024-02-28T12:48:40;98846.16;;;21.26;37.91
67818;BME280;54614;47.576;7.524;2024-02-28T12:51:21;98846.25;;;21.33;37.93
67818;BME280;54614;47.576;7.524;2024-02-28T12:54:00;98846.91;;;21.35;37.76
67818;BME280;54614;47.576;7.524;2024-02-28T12:56:27;98832.88;;;21.33;38.02
67818;BME280;54614;47.576;7.524;2024-02-28T12:58:53;98838.31;;;21.25;38.05
67818;BME280;54614;47.576;7.524;2024-02-28T13:01:19;98830.66;;;21.36;37.82
67818;BME280;54614;47.576;7.524;2024-02-28T13:03:45;98824.94;;;21.39;37.59
67818;BME280;54614;47.576;7.524;2024-02-28T13:06:10;98825.59;;;21.41;37.72
67818;BME280;54614;47.576;7.524;2024-02-28T13:08:36;98830.66;;;21.36;37.61
67818;BME280;54614;47.576;7.524;2024-02-28T13:11:02;98826.88;;;21.31;37.75
67818;BME280;54614;47.576;7.524;2024-02-28T13:13:29;98840.44;;;21.29;38.05
67818;BME280;54614;47.576;7.524;2024-02-28T13:15:54;98835.19;;;21.36;38.01